createdAt,value
2022-10-11T00:02:20.290Z,6.10
2022-10-11T00:04:47.666Z,6.15
2022-10-11T00:07:15.030Z,5.78
2022-10-11T00:09:42.745Z,4.68
2022-10-11T00:12:10.018Z,3.33
2022-10-11T00:14:37.802Z,4.40
2022-10-11T00:17:07.848Z,3.58
2022-10-11T00:22:02.278Z,4.90
2022-10-11T00:24:29.613Z,4.95
2022-10-11T00:26:56.948Z,4.57
2022-10-11T00:29:24.254Z,7.47
2022-10-11T00:31:51.563Z,3.67
2022-10-11T00:34:18.851Z,3.28
2022-10-11T00:36:46.399Z,3.22
2022-10-11T00:39:14.480Z,3.55
2022-10-11T00:41:42.016Z,4.30
2022-10-11T00:44:22.661Z,6.55
2022-10-11T00:46:56.063Z,5.97
2022-10-11T00:49:36.409Z,5.45
2022-10-11T00:52:12.526Z,2.85
2022-10-11T00:54:41.004Z,7.03
2022-10-11T00:57:12.848Z,4.35
2022-10-11T00:59:44.746Z,9.65
2022-10-11T01:02:12.356Z,3.17
2022-10-11T01:04:40.095Z,4.05
2022-10-11T01:07:07.760Z,2.70
2022-10-11T01:09:35.043Z,2.92
2022-10-11T01:12:04.574Z,4.68
2022-10-11T01:14:44.093Z,3.88
2022-10-11T01:17:17.142Z,3.83
2022-10-11T01:19:50.527Z,5.18
2022-10-11T01:22:18.873Z,7.10
2022-10-11T01:25:09.453Z,6.03
2022-10-11T01:27:45.829Z,4.00
2022-10-11T01:30:20.592Z,5.60
2022-10-11T01:33:06.325Z,5.57
2022-10-11T01:35:42.547Z,4.68
2022-10-11T01:38:17.710Z,7.30
2022-10-11T01:40:48.015Z,9.35
2022-10-11T01:43:16.365Z,6.93
2022-10-11T01:45:44.404Z,9.70
2022-10-11T01:48:13.088Z,6.15
2022-10-11T01:50:53.618Z,6.18
2022-10-11T01:53:26.170Z,5.63
2022-10-11T01:56:06.881Z,3.30
2022-10-11T01:58:53.240Z,4.32
2022-10-11T02:01:39.395Z,5.57
2022-10-11T02:04:25.816Z,4.45
2022-10-11T02:07:08.467Z,5.78
2022-10-11T02:09:57.806Z,5.75
2022-10-11T02:12:34.695Z,4.85
2022-10-11T02:15:03.831Z,8.60
2022-10-11T02:17:36.765Z,8.03
2022-10-11T02:20:06.968Z,4.47
2022-10-11T02:22:39.020Z,5.20
2022-10-11T02:25:08.417Z,6.20
2022-10-11T02:27:36.919Z,5.22
2022-10-11T02:30:05.522Z,4.18
2022-10-11T02:32:32.831Z,6.72
2022-10-11T02:35:01.146Z,6.20
2022-10-11T02:37:32.464Z,6.43
2022-10-11T02:40:04.956Z,5.05
2022-10-11T02:42:37.394Z,4.20
2022-10-11T02:45:09.039Z,2.35
2022-10-11T02:47:36.363Z,2.85
2022-10-11T02:50:03.832Z,6.30
2022-10-11T02:52:31.069Z,3.15
2022-10-11T02:54:58.383Z,2.35
2022-10-11T02:57:25.985Z,5.78
2022-10-11T02:59:53.272Z,3.95
2022-10-11T03:02:20.576Z,4.40
2022-10-11T03:04:47.826Z,2.50
2022-10-11T03:07:15.303Z,4.43
2022-10-11T03:09:42.651Z,4.70
2022-10-11T03:12:10.031Z,6.70
2022-10-11T03:14:37.524Z,5.03
2022-10-11T03:17:30.896Z,6.55
2022-10-11T03:19:52.614Z,3.45
2022-10-11T03:22:19.865Z,10.80
2022-10-11T03:24:47.167Z,4.25
2022-10-11T03:27:14.436Z,6.20
2022-10-11T03:29:41.712Z,3.70
2022-10-11T03:32:08.991Z,4.15
2022-10-11T03:34:36.260Z,4.60
2022-10-11T03:37:03.497Z,4.88
2022-10-11T03:39:30.793Z,7.40
2022-10-11T03:41:58.043Z,3.30
2022-10-11T03:44:25.327Z,3.00
2022-10-11T03:46:52.619Z,8.88
2022-10-11T03:49:19.993Z,3.05
2022-10-11T03:51:47.283Z,5.88
2022-10-11T03:54:14.742Z,3.67
2022-10-11T03:56:42.014Z,5.78
2022-10-11T03:59:09.349Z,6.22
2022-10-11T04:01:38.572Z,4.13
2022-10-11T04:04:06.293Z,4.40
2022-10-11T04:06:33.587Z,3.22
2022-10-11T04:09:01.066Z,4.78
2022-10-11T04:11:28.420Z,6.45
2022-10-11T04:13:55.703Z,7.10
2022-10-11T04:16:22.948Z,6.45
2022-10-11T04:18:50.211Z,10.90
2022-10-11T04:21:18.011Z,4.93
2022-10-11T04:23:45.338Z,8.25
2022-10-11T04:26:12.627Z,4.63
2022-10-11T04:28:41.090Z,3.95
2022-10-11T04:31:08.487Z,7.68
2022-10-11T04:33:35.858Z,9.98
2022-10-11T04:36:03.747Z,5.93
2022-10-11T04:38:32.809Z,5.07
2022-10-11T04:41:08.796Z,8.35
2022-10-11T04:43:36.248Z,3.70
2022-10-11T04:46:03.542Z,5.80
2022-10-11T04:48:31.298Z,5.18
2022-10-11T04:50:58.604Z,7.00
2022-10-11T04:53:26.089Z,5.80
2022-10-11T04:55:57.979Z,3.75
2022-10-11T04:58:25.248Z,3.95
2022-10-11T05:00:52.498Z,3.80
2022-10-11T05:03:19.796Z,5.03
2022-10-11T05:05:47.055Z,8.25
2022-10-11T05:08:14.295Z,4.10
2022-10-11T05:10:41.551Z,6.28
2022-10-11T05:13:08.803Z,8.07
2022-10-11T05:15:36.065Z,3.78
2022-10-11T05:18:03.295Z,5.22
2022-10-11T05:20:30.621Z,5.22
2022-10-11T05:22:57.937Z,5.35
2022-10-11T05:25:25.218Z,4.10
2022-10-11T05:27:52.475Z,3.28
2022-10-11T05:30:19.746Z,5.45
2022-10-11T05:32:47.044Z,9.60
2022-10-11T05:35:14.696Z,8.02
2022-10-11T05:37:41.981Z,11.23
2022-10-11T05:40:09.652Z,4.63
2022-10-11T05:42:36.903Z,5.43
2022-10-11T05:45:05.202Z,11.13
2022-10-11T05:47:32.515Z,6.15
2022-10-11T05:49:59.999Z,6.15
2022-10-11T05:52:27.423Z,6.60
2022-10-11T05:54:54.675Z,12.02
2022-10-11T05:57:22.007Z,4.75
2022-10-11T05:59:49.249Z,5.18
2022-10-11T06:02:16.554Z,12.30
2022-10-11T06:04:43.804Z,7.07
2022-10-11T06:07:11.132Z,10.20
2022-10-11T06:09:39.650Z,6.25
2022-10-11T06:12:07.096Z,4.15
2022-10-11T06:14:34.644Z,4.20
2022-10-11T06:17:01.908Z,7.20
2022-10-11T06:19:29.243Z,6.22
2022-10-11T06:21:56.567Z,4.53
2022-10-11T06:24:23.879Z,7.55
2022-10-11T06:26:51.162Z,22.25
2022-10-11T06:29:18.418Z,15.25
2022-10-11T06:31:45.826Z,7.82
2022-10-11T06:34:13.036Z,5.70
2022-10-11T06:36:40.286Z,4.43
2022-10-11T06:39:07.541Z,11.90
2022-10-11T06:41:34.874Z,5.97
2022-10-11T06:44:02.169Z,3.63
2022-10-11T06:46:29.540Z,4.57
2022-10-11T06:48:56.814Z,6.45
2022-10-11T06:51:25.627Z,8.98
2022-10-11T06:53:55.553Z,6.70
2022-10-11T06:58:51.273Z,5.93
2022-10-11T07:01:20.151Z,6.38
2022-10-11T07:03:48.239Z,4.38
2022-10-11T07:06:16.930Z,2.90
2022-10-11T07:08:44.264Z,2.83
2022-10-11T07:11:12.702Z,3.90
2022-10-11T07:13:40.538Z,5.28
2022-10-11T07:16:09.524Z,3.28
2022-10-11T07:18:37.209Z,6.00
2022-10-11T07:21:08.670Z,3.45
2022-10-11T07:24:09.208Z,2.15
2022-10-11T07:26:38.603Z,3.95
2022-10-11T07:31:33.823Z,10.15
2022-10-11T07:34:01.121Z,14.07
2022-10-11T07:36:28.538Z,8.30
2022-10-11T07:38:55.865Z,5.53
2022-10-11T07:41:23.146Z,7.55
2022-10-11T07:43:51.108Z,5.47
2022-10-11T07:46:18.951Z,3.35
2022-10-11T07:48:46.360Z,4.07
2022-10-11T07:51:23.412Z,6.13
2022-10-11T07:53:55.491Z,8.50
2022-10-11T07:56:27.131Z,5.60
2022-10-11T07:58:55.757Z,3.20
2022-10-11T08:01:23.158Z,11.68
2022-10-11T08:03:51.037Z,15.50
2022-10-11T08:06:19.530Z,3.67
2022-10-11T08:08:46.832Z,11.48
2022-10-11T08:11:20.876Z,5.40
2022-10-11T08:13:48.166Z,5.70
2022-10-11T08:16:15.418Z,6.78
2022-10-11T08:18:42.922Z,4.72
2022-10-11T08:21:11.071Z,6.82
2022-10-11T08:23:38.523Z,7.13
2022-10-11T08:26:06.142Z,5.38
2022-10-11T08:28:33.908Z,4.68
2022-10-11T08:31:01.282Z,6.72
2022-10-11T08:33:28.916Z,9.25
2022-10-11T08:35:57.363Z,6.25
2022-10-11T08:38:25.084Z,7.68
2022-10-11T08:40:56.530Z,6.15
2022-10-11T08:43:30.358Z,5.35
2022-10-11T08:45:59.624Z,3.60
2022-10-11T08:48:32.682Z,4.90
2022-10-11T08:51:00.031Z,9.40
2022-10-11T08:53:30.766Z,9.43
2022-10-11T08:55:58.124Z,6.72
2022-10-11T08:58:29.708Z,6.40
2022-10-11T09:00:57.461Z,5.95
2022-10-11T09:03:24.747Z,7.35
2022-10-11T09:05:57.938Z,6.93
2022-10-11T09:08:45.471Z,6.53
2022-10-11T09:11:12.825Z,5.85
2022-10-11T09:14:00.570Z,4.75
2022-10-11T09:16:32.863Z,6.75
2022-10-11T09:19:23.179Z,3.72
2022-10-11T09:22:01.513Z,6.70
2022-10-11T09:24:47.451Z,5.32
2022-10-11T09:27:57.697Z,4.97
2022-10-11T09:30:22.180Z,5.70
2022-10-11T09:33:00.328Z,7.00
2022-10-11T09:35:29.161Z,6.32
2022-10-11T09:38:06.867Z,7.43
2022-10-11T09:40:44.129Z,7.75
2022-10-11T09:43:11.480Z,6.05
2022-10-11T09:45:48.255Z,9.82
2022-10-11T09:48:36.932Z,9.02
2022-10-11T09:51:06.646Z,10.40
2022-10-11T09:53:50.742Z,13.57
2022-10-11T09:56:18.073Z,9.05
2022-10-11T09:58:45.475Z,8.77
2022-10-11T10:01:14.236Z,12.02
2022-10-11T10:03:43.417Z,10.30
2022-10-11T10:06:24.518Z,11.48
2022-10-11T10:08:51.803Z,17.52
2022-10-11T10:11:19.836Z,9.93
2022-10-11T10:13:51.286Z,10.07
2022-10-11T10:16:21.292Z,12.43
2022-10-11T10:21:16.330Z,12.88
2022-10-11T10:23:44.059Z,13.68
2022-10-11T10:26:19.668Z,6.60
2022-10-11T10:28:59.183Z,14.52
2022-10-11T10:31:30.042Z,7.05
2022-10-11T10:33:58.133Z,7.63
2022-10-11T10:36:30.530Z,7.22
2022-10-11T10:39:11.660Z,6.40
2022-10-11T10:41:38.944Z,9.80
2022-10-11T10:44:06.357Z,7.28
2022-10-11T10:46:39.406Z,5.68
2022-10-11T10:49:41.158Z,6.80
2022-10-11T10:54:44.073Z,6.82
2022-10-11T10:57:20.933Z,5.57
2022-10-11T10:59:51.251Z,4.22
2022-10-11T11:02:39.603Z,8.57
2022-10-11T11:05:18.986Z,9.63
2022-10-11T11:07:46.317Z,10.10
2022-10-11T11:10:19.569Z,10.68
2022-10-11T11:12:46.863Z,5.85
2022-10-11T11:15:19.734Z,5.63
2022-10-11T11:17:56.357Z,8.07
2022-10-11T11:20:42.491Z,8.18
2022-10-11T11:23:23.833Z,7.22
2022-10-11T11:25:58.022Z,8.95
2022-10-11T11:28:25.363Z,8.57
2022-10-11T11:30:52.587Z,10.45
2022-10-11T11:33:19.778Z,6.20
2022-10-11T11:35:49.589Z,6.93
2022-10-11T11:38:19.865Z,9.98
2022-10-11T11:40:53.482Z,9.45
2022-10-11T11:43:25.012Z,8.20
2022-10-11T11:45:55.294Z,7.70
2022-10-11T11:48:27.476Z,9.38
2022-10-11T11:51:02.856Z,8.18
2022-10-11T11:53:33.115Z,8.95
2022-10-11T11:56:07.871Z,7.18
2022-10-11T11:58:45.973Z,6.88
2022-10-11T12:01:26.519Z,9.25
2022-10-11T12:03:57.998Z,6.75
2022-10-11T12:06:36.114Z,8.73
2022-10-11T12:09:20.483Z,8.57
2022-10-11T12:11:56.218Z,8.07
2022-10-11T12:14:24.807Z,5.30
2022-10-11T12:17:07.122Z,7.70
2022-10-11T12:19:34.424Z,7.15
2022-10-11T12:22:36.834Z,8.07
2022-10-11T12:25:12.808Z,7.53
2022-10-11T12:27:46.795Z,9.02
2022-10-11T12:30:32.752Z,7.82
2022-10-11T12:33:16.774Z,11.57
2022-10-11T12:35:56.239Z,8.10
2022-10-11T12:38:25.318Z,10.75
2022-10-11T12:41:02.558Z,11.53
2022-10-11T12:43:37.586Z,10.15
2022-10-11T12:46:23.486Z,10.05
2022-10-11T12:48:58.632Z,10.35
2022-10-11T12:51:34.822Z,17.63
2022-10-11T12:54:25.413Z,10.50
2022-10-11T12:56:55.206Z,11.40
2022-10-11T12:59:23.862Z,11.45
2022-10-11T13:01:58.887Z,7.35
2022-10-11T13:04:30.839Z,11.45
2022-10-11T13:07:02.113Z,9.93
2022-10-11T13:09:35.653Z,9.02
2022-10-11T13:12:21.885Z,9.40
2022-10-11T13:15:04.012Z,11.88
2022-10-11T13:17:38.019Z,13.45
2022-10-11T13:20:18.290Z,9.45
2022-10-11T13:22:47.519Z,10.80
2022-10-11T13:25:37.575Z,11.45
2022-10-11T13:28:09.694Z,10.77
2022-10-11T13:30:38.201Z,9.38
2022-10-11T13:33:08.721Z,11.40
2022-10-11T13:35:37.149Z,11.48
2022-10-11T13:38:05.590Z,10.88
2022-10-11T13:40:33.034Z,17.60
2022-10-11T13:43:00.482Z,12.18
2022-10-11T13:45:30.737Z,14.18
2022-10-11T13:47:58.205Z,15.18
2022-10-11T13:50:32.127Z,12.50
2022-10-11T13:53:01.219Z,13.52
2022-10-11T13:55:35.991Z,11.90
2022-10-11T13:58:11.211Z,13.18
2022-10-11T14:00:40.496Z,14.23
2022-10-11T14:03:16.291Z,13.85
2022-10-11T14:05:44.879Z,14.63
2022-10-11T14:08:30.381Z,14.40
2022-10-11T14:11:01.285Z,17.92
2022-10-11T14:13:35.351Z,11.82
2022-10-11T14:16:02.732Z,13.38
2022-10-11T14:18:47.455Z,13.88
2022-10-11T14:21:18.836Z,15.60
2022-10-11T14:23:46.569Z,13.07
2022-10-11T14:26:18.510Z,12.70
2022-10-11T14:28:46.537Z,17.75
2022-10-11T14:31:13.820Z,20.60
2022-10-11T14:33:41.083Z,14.63
2022-10-11T14:36:08.936Z,18.40
2022-10-11T14:38:36.413Z,26.05
2022-10-11T14:41:03.921Z,15.38
2022-10-11T14:43:31.197Z,18.23
2022-10-11T14:45:58.578Z,16.00
2022-10-11T14:48:50.363Z,19.33
2022-10-11T14:51:13.795Z,16.95
2022-10-11T14:53:46.266Z,19.35
2022-10-11T14:56:17.793Z,17.85
2022-10-11T14:58:48.508Z,16.52
2022-10-11T15:01:16.919Z,17.00
2022-10-11T15:03:44.484Z,16.45
2022-10-11T15:06:32.865Z,15.73
2022-10-11T15:09:00.248Z,21.50
2022-10-11T15:11:27.553Z,17.77
2022-10-11T15:13:54.800Z,25.88
2022-10-11T15:16:22.500Z,19.35
2022-10-11T15:18:52.091Z,20.83
2022-10-11T15:21:22.754Z,18.48
2022-10-11T15:23:50.761Z,17.63
2022-10-11T15:26:21.231Z,17.58
2022-10-11T15:28:49.276Z,23.73
2022-10-11T15:31:18.915Z,22.40
2022-10-11T15:33:46.873Z,24.92
2022-10-11T15:36:18.831Z,22.33
2022-10-11T15:38:48.416Z,23.80
2022-10-11T15:41:19.005Z,24.27
2022-10-11T15:43:47.438Z,27.10
2022-10-11T15:46:19.364Z,24.08
2022-10-11T15:48:47.379Z,22.52
2022-10-11T15:51:14.791Z,26.25
2022-10-11T15:53:42.224Z,20.08
2022-10-11T15:56:12.720Z,24.48
2022-10-11T15:58:41.093Z,20.10
2022-10-11T16:01:09.992Z,20.83
2022-10-11T16:03:37.315Z,20.60
2022-10-11T16:06:05.686Z,18.38
2022-10-11T16:08:33.647Z,20.05
2022-10-11T16:11:00.922Z,25.98
2022-10-11T16:13:28.211Z,22.77
2022-10-11T16:15:55.509Z,23.05
2022-10-11T16:18:22.876Z,23.08
2022-10-11T16:20:52.002Z,16.15
2022-10-11T16:23:20.798Z,19.63
2022-10-11T16:25:56.464Z,21.88
2022-10-11T16:28:23.784Z,16.85
2022-10-11T16:30:51.179Z,20.88
2022-10-11T16:33:18.536Z,19.88
2022-10-11T16:35:45.845Z,17.60
2022-10-11T16:38:13.187Z,19.63
2022-10-11T16:40:41.165Z,18.17
2022-10-11T16:43:08.636Z,18.77
2022-10-11T16:45:36.456Z,23.10
2022-10-11T16:48:04.223Z,19.90
2022-10-11T16:50:34.442Z,17.58
2022-10-11T16:53:05.678Z,19.48
2022-10-11T16:55:32.924Z,18.73
2022-10-11T16:58:00.156Z,22.40
2022-10-11T17:00:27.570Z,19.88
2022-10-11T17:02:54.946Z,26.80
2022-10-11T17:05:22.228Z,29.92
2022-10-11T17:07:49.465Z,24.60
2022-10-11T17:10:16.737Z,37.97
2022-10-11T17:12:49.170Z,32.20
2022-10-11T17:15:17.561Z,35.67
2022-10-11T17:17:44.882Z,37.33
2022-10-11T17:20:12.208Z,38.03
2022-10-11T17:22:39.480Z,36.80
2022-10-11T17:25:07.230Z,37.70
2022-10-11T17:27:34.602Z,36.38
2022-10-11T17:30:01.872Z,34.83
2022-10-11T17:32:29.139Z,33.78
2022-10-11T17:34:57.403Z,34.75
2022-10-11T17:37:24.797Z,27.85
2022-10-11T17:39:53.773Z,40.03
2022-10-11T17:42:21.078Z,33.75
2022-10-11T17:44:48.424Z,35.35
2022-10-11T17:47:15.945Z,40.97
2022-10-11T17:49:43.293Z,32.65
2022-10-11T17:52:10.535Z,35.13
2022-10-11T17:54:40.167Z,44.80
2022-10-11T17:57:09.855Z,34.05
2022-10-11T17:59:37.371Z,48.60
2022-10-11T18:02:04.620Z,33.78
2022-10-11T18:04:31.883Z,42.22
2022-10-11T18:06:59.160Z,41.05
2022-10-11T18:09:27.275Z,41.97
2022-10-11T18:11:55.806Z,44.75
2022-10-11T18:14:23.063Z,37.95
2022-10-11T18:16:50.654Z,35.45
2022-10-11T18:19:18.676Z,35.17
2022-10-11T18:21:46.058Z,39.38
2022-10-11T18:24:17.838Z,33.38
2022-10-11T18:26:46.284Z,34.03
2022-10-11T18:29:13.894Z,36.67
2022-10-11T18:31:42.758Z,36.45
2022-10-11T18:34:13.087Z,35.17
2022-10-11T18:36:40.480Z,38.05
2022-10-11T18:39:09.037Z,33.50
2022-10-11T18:41:36.714Z,38.30
2022-10-11T18:44:06.776Z,43.92
2022-10-11T18:46:34.358Z,42.72
2022-10-11T18:49:02.123Z,46.13
2022-10-11T18:51:31.818Z,39.85
2022-10-11T18:54:00.782Z,50.45
2022-10-11T18:56:29.947Z,47.53
2022-10-11T18:58:59.891Z,41.75
2022-10-11T19:01:32.733Z,44.67
2022-10-11T19:04:04.835Z,40.90
2022-10-11T19:06:33.705Z,38.45
2022-10-11T19:09:11.923Z,44.80
2022-10-11T19:11:39.654Z,48.53
2022-10-11T19:14:11.587Z,36.42
2022-10-11T19:16:41.920Z,35.83
2022-10-11T19:19:11.935Z,35.28
2022-10-11T19:24:07.498Z,27.55
2022-10-11T19:26:37.147Z,33.83
2022-10-11T19:29:06.462Z,30.27
2022-10-11T19:31:34.833Z,31.63
2022-10-11T19:34:02.487Z,28.77
2022-10-11T19:36:36.256Z,29.80
2022-10-11T19:39:04.940Z,26.70
2022-10-11T19:41:33.856Z,25.73
2022-10-11T19:44:01.203Z,24.33
2022-10-11T19:49:17.846Z,28.40
2022-10-11T19:51:45.610Z,34.37
2022-10-11T19:54:14.262Z,29.88
2022-10-11T19:56:42.483Z,27.58
2022-10-11T19:59:10.760Z,30.90
2022-10-11T20:01:38.603Z,30.15
2022-10-11T20:04:07.457Z,32.70
2022-10-11T20:06:38.642Z,28.67
2022-10-11T20:11:54.733Z,30.20
2022-10-11T20:14:22.142Z,39.17
2022-10-11T20:16:52.179Z,31.48
2022-10-11T20:19:19.538Z,31.60
2022-10-11T20:21:46.885Z,35.97
2022-10-11T20:24:14.194Z,44.90
2022-10-11T20:26:41.482Z,31.15
2022-10-11T20:29:08.814Z,30.13
2022-10-11T20:31:41.832Z,29.55
2022-10-11T20:34:10.086Z,32.22
2022-10-11T20:36:37.421Z,36.58
2022-10-11T20:39:06.001Z,36.30
2022-10-11T20:41:37.019Z,38.47
2022-10-11T20:44:04.897Z,31.15
2022-10-11T20:46:36.095Z,31.52
2022-10-11T20:49:04.635Z,27.27
2022-10-11T20:51:32.910Z,23.23
2022-10-11T20:54:01.024Z,29.75
2022-10-11T20:56:28.470Z,27.13
2022-10-11T20:58:56.656Z,28.23
2022-10-11T21:01:26.363Z,22.35
2022-10-11T21:03:53.857Z,17.17
2022-10-11T21:06:21.120Z,20.88
2022-10-11T21:08:48.538Z,20.00
2022-10-11T21:11:16.437Z,27.90
2022-10-11T21:13:44.082Z,25.92
2022-10-11T21:16:15.358Z,19.75
2022-10-11T21:18:42.886Z,20.52
2022-10-11T21:21:13.498Z,24.92
2022-10-11T21:23:41.466Z,22.55
2022-10-11T21:26:13.432Z,29.35
2022-10-11T21:28:41.213Z,32.47
2022-10-11T21:31:13.054Z,25.35
2022-10-11T21:33:41.097Z,27.85
2022-10-11T21:36:09.384Z,22.77
2022-10-11T21:38:36.988Z,27.48
2022-10-11T21:41:08.593Z,23.45
2022-10-11T21:43:38.217Z,21.48
2022-10-11T21:46:12.649Z,22.42
2022-10-11T21:48:40.090Z,24.08
2022-10-11T21:51:07.771Z,24.05
2022-10-11T21:53:35.270Z,27.15
2022-10-11T21:56:02.566Z,17.92
2022-10-11T21:58:29.917Z,26.77
2022-10-11T22:00:57.311Z,26.60
2022-10-11T22:03:24.725Z,19.33
2022-10-11T22:05:52.152Z,24.40
2022-10-11T22:08:19.626Z,20.73
2022-10-11T22:10:53.361Z,18.45
2022-10-11T22:13:20.990Z,13.80
2022-10-11T22:15:48.317Z,23.45
2022-10-11T22:18:15.856Z,14.40
2022-10-11T22:20:43.268Z,17.35
2022-10-11T22:23:11.606Z,15.23
2022-10-11T22:25:39.709Z,17.63
2022-10-11T22:28:07.237Z,14.48
2022-10-11T22:30:35.058Z,20.77
2022-10-11T22:33:02.406Z,11.68
2022-10-11T22:35:31.440Z,21.27
2022-10-11T22:38:00.983Z,18.10
2022-10-11T22:40:28.300Z,11.90
2022-10-11T22:42:55.580Z,17.40
2022-10-11T22:45:22.879Z,14.35
2022-10-11T22:47:50.211Z,22.13
2022-10-11T22:50:17.579Z,19.92
2022-10-11T22:52:44.904Z,17.52
2022-10-11T22:55:16.239Z,18.63
2022-10-11T22:57:46.969Z,13.60
2022-10-11T23:00:14.425Z,11.63
2022-10-11T23:02:41.823Z,10.75
2022-10-11T23:05:09.205Z,17.98
2022-10-11T23:07:36.997Z,12.02
2022-10-11T23:10:04.994Z,13.75
2022-10-11T23:12:32.447Z,11.82
2022-10-11T23:15:01.335Z,16.48
2022-10-11T23:17:31.689Z,13.20
2022-10-11T23:19:59.056Z,15.85
2022-10-11T23:22:26.420Z,9.38
2022-10-11T23:24:53.731Z,13.70
2022-10-11T23:27:21.127Z,14.32
2022-10-11T23:29:48.425Z,13.73
2022-10-11T23:32:15.760Z,15.63
2022-10-11T23:34:43.143Z,10.27
2022-10-11T23:37:12.751Z,16.90
2022-10-11T23:39:40.116Z,9.35
2022-10-11T23:42:07.565Z,13.75
2022-10-11T23:44:34.871Z,12.55
2022-10-11T23:47:02.470Z,10.95
2022-10-11T23:49:29.769Z,14.15
2022-10-11T23:51:57.412Z,13.80
2022-10-11T23:54:24.780Z,12.68
2022-10-11T23:56:52.091Z,12.68
2022-10-11T23:59:19.515Z,12.45
